Time;durP1;ratioP1;P1;durP2;ratioP2;P2;SDS_P1;SDS_P2;PMS_P1;PMS_P2;Temp;Humidity;BMP_temperature;BMP_pressure;BME280_temperature;BME280_humidity;BME280_pressure;Samples;Min_cycle;Max_cycle;Signal;HPM_P1;HPM_P2
2022/07/01 00:01:24;;;;;;;;;;;22.60;72.50;;;;;;5085449;28;1342;-71
2022/07/01 00:03:49;;;;;;;;;;;22.60;72.60;;;;;;5078890;28;1894;-72
2022/07/01 00:06:15;;;;;;;;;;;22.60;72.40;;;;;;5085740;28;1385;-72
2022/07/01 00:08:40;;;;;;;;;;;22.60;72.50;;;;;;5074739;28;1285;-73
2022/07/01 00:11:06;;;;;;;;;;;22.60;72.60;;;;;;5075652;28;1275;-72
2022/07/01 00:13:32;;;;;;;;;;;22.60;72.70;;;;;;5075372;28;1275;-73
2022/07/01 00:15:57;;;;;;;;;;;22.60;72.80;;;;;;5076439;28;1412;-73
2022/07/01 00:18:23;;;;;;;;;;;22.60;72.70;;;;;;5077411;28;1244;-72
2022/07/01 00:20:50;;;;;;;;;;;22.60;72.90;;;;;;5085946;28;1265;-73
2022/07/01 00:23:19;;;;;;;;;;;22.60;72.80;;;;;;5073897;28;1898;-70
2022/07/01 00:25:44;;;;;;;;;;;22.60;73.00;;;;;;5085489;28;1215;-69
2022/07/01 00:28:10;;;;;;;;;;;22.60;73.10;;;;;;5096317;28;1317;-69
2022/07/01 00:30:35;;;;;;;;;;;22.60;73.00;;;;;;5095435;28;1259;-69
2022/07/01 00:33:00;;;;;;;;;;;22.60;72.90;;;;;;5094036;28;1364;-69
2022/07/01 00:35:26;;;;;;;;;;;22.60;72.90;;;;;;5095072;28;1284;-69
2022/07/01 00:37:51;;;;;;;;;;;22.60;72.90;;;;;;5094211;28;1336;-73
2022/07/01 00:40:17;;;;;;;;;;;22.60;73.10;;;;;;5095644;28;1234;-72
2022/07/01 00:42:43;;;;;;;;;;;22.60;73.10;;;;;;5094224;28;1906;-71
2022/07/01 00:45:11;;;;;;;;;;;22.60;72.90;;;;;;5094808;28;1372;-72
2022/07/01 00:47:37;;;;;;;;;;;22.60;72.90;;;;;;5094853;28;1299;-72
2022/07/01 00:50:05;;;;;;;;;;;22.60;73.10;;;;;;5077609;28;1560;-72
2022/07/01 00:52:30;;;;;;;;;;;22.60;73.10;;;;;;5093995;28;1076;-70
2022/07/01 00:54:55;;;;;;;;;;;22.60;73.00;;;;;;5093028;28;1450;-71
2022/07/01 00:57:21;;;;;;;;;;;22.60;73.00;;;;;;5093782;28;1331;-71
2022/07/01 00:59:46;;;;;;;;;;;22.60;72.90;;;;;;5088478;28;1752;-70
2022/07/01 01:02:12;;;;;;;;;;;22.60;72.90;;;;;;5093823;28;1901;-70
2022/07/01 01:04:37;;;;;;;;;;;22.60;73.00;;;;;;5094706;28;1254;-70
2022/07/01 01:07:03;;;;;;;;;;;22.60;73.00;;;;;;5094820;28;1292;-71
2022/07/01 01:09:30;;;;;;;;;;;22.60;73.00;;;;;;5084263;28;1065;-71
2022/07/01 01:11:55;;;;;;;;;;;22.60;73.10;;;;;;5078553;28;1512;-71
2022/07/01 01:14:21;;;;;;;;;;;22.60;73.10;;;;;;5084161;28;1299;-70
2022/07/01 01:16:47;;;;;;;;;;;22.60;73.10;;;;;;5089153;28;1350;-72
2022/07/01 01:19:12;;;;;;;;;;;22.60;73.10;;;;;;5087278;23;1904;-76
2022/07/01 01:21:38;;;;;;;;;;;22.60;73.10;;;;;;5054423;28;1976;-77
2022/07/01 01:24:03;;;;;;;;;;;22.60;73.00;;;;;;5048334;28;922;-77
2022/07/01 01:26:29;;;;;;;;;;;22.60;73.00;;;;;;5070495;28;1155;-77
2022/07/01 01:28:55;;;;;;;;;;;22.60;73.00;;;;;;5056755;28;1276;-76
2022/07/01 01:31:30;;;;;;;;;;;22.60;73.10;;;;;;5057013;28;1116;-76
2022/07/01 01:33:56;;;;;;;;;;;22.60;73.10;;;;;;5057062;28;1063;-76
2022/07/01 01:36:21;;;;;;;;;;;22.60;73.10;;;;;;5057355;28;1120;-77
2022/07/01 01:38:47;;;;;;;;;;;22.60;73.10;;;;;;5075107;28;1191;-77
2022/07/01 01:41:12;;;;;;;;;;;22.60;73.10;;;;;;5074972;28;1115;-77
2022/07/01 01:43:37;;;;;;;;;;;22.60;73.20;;;;;;5074846;28;1902;-77
2022/07/01 01:46:03;;;;;;;;;;;22.60;73.40;;;;;;5056745;28;1391;-77
2022/07/01 01:48:29;;;;;;;;;;;22.60;73.30;;;;;;5057043;28;1220;-77
2022/07/01 01:50:55;;;;;;;;;;;22.60;73.50;;;;;;5056935;28;1140;-77
2022/07/01 01:53:21;;;;;;;;;;;22.60;73.40;;;;;;5056546;28;1261;-77
2022/07/01 01:55:46;;;;;;;;;;;22.60;73.50;;;;;;5056213;28;1167;-77
2022/07/01 01:58:12;;;;;;;;;;;22.60;73.50;;;;;;5056296;28;1460;-77
2022/07/01 02:00:37;;;;;;;;;;;22.50;73.30;;;;;;5056212;28;1079;-77
2022/07/01 02:03:03;;;;;;;;;;;22.60;73.50;;;;;;5074213;28;1949;-77
2022/07/01 02:05:28;;;;;;;;;;;22.60;73.40;;;;;;5056141;28;1072;-77
2022/07/01 02:07:53;;;;;;;;;;;22.60;73.60;;;;;;5039197;28;1342;-76
2022/07/01 02:10:20;;;;;;;;;;;22.50;73.60;;;;;;5055469;28;1269;-76
2022/07/01 02:12:47;;;;;;;;;;;22.50;73.60;;;;;;5055379;28;1271;-77
2022/07/01 02:15:12;;;;;;;;;;;22.60;73.60;;;;;;5073544;28;1056;-77
2022/07/01 02:17:38;;;;;;;;;;;22.50;73.60;;;;;;5073882;28;1790;-77
2022/07/01 02:20:04;;;;;;;;;;;22.60;73.70;;;;;;5047585;28;1413;-77
2022/07/01 02:22:29;;;;;;;;;;;22.50;73.90;;;;;;5055599;28;1909;-77
2022/07/01 02:24:54;;;;;;;;;;;22.60;73.90;;;;;;5073123;28;1236;-76
2022/07/01 02:27:20;;;;;;;;;;;22.50;73.70;;;;;;5055753;28;1285;-76
2022/07/01 02:29:45;;;;;;;;;;;22.50;73.80;;;;;;5072563;28;1778;-76
2022/07/01 02:32:11;;;;;;;;;;;22.50;73.70;;;;;;5055568;28;1139;-77
2022/07/01 02:34:36;;;;;;;;;;;22.50;73.70;;;;;;5073077;28;1166;-76
2022/07/01 02:37:02;;;;;;;;;;;22.50;73.80;;;;;;5073511;28;1064;-76
2022/07/01 02:39:27;;;;;;;;;;;22.50;73.90;;;;;;5055394;28;1162;-76
2022/07/01 02:44:37;;;;;;;;;;;22.50;74.10;;;;;;5072996;28;1126;-76
2022/07/01 02:47:02;;;;;;;;;;;22.50;74.20;;;;;;5038787;28;1141;-76
2022/07/01 02:49:28;;;;;;;;;;;22.50;74.20;;;;;;5055452;28;1194;-76
2022/07/01 02:51:53;;;;;;;;;;;22.50;74.30;;;;;;5055278;28;1119;-76
2022/07/01 02:54:19;;;;;;;;;;;22.60;74.30;;;;;;5054889;28;1194;-76
2022/07/01 02:56:45;;;;;;;;;;;22.50;74.40;;;;;;5035275;28;1175;-76
2022/07/01 02:59:10;;;;;;;;;;;22.50;74.40;;;;;;5072476;28;1459;-76
2022/07/01 03:01:35;;;;;;;;;;;22.50;74.40;;;;;;5055170;28;1944;-76
2022/07/01 03:04:01;;;;;;;;;;;22.50;74.40;;;;;;5072750;28;1116;-76
2022/07/01 03:06:26;;;;;;;;;;;22.50;74.50;;;;;;5073234;28;1064;-76
2022/07/01 03:08:52;;;;;;;;;;;22.50;74.50;;;;;;5055617;28;1348;-76
2022/07/01 03:11:17;;;;;;;;;;;22.50;74.40;;;;;;5072923;28;1154;-77
2022/07/01 03:13:43;;;;;;;;;;;22.50;74.40;;;;;;5054881;28;1151;-77
2022/07/01 03:16:08;;;;;;;;;;;22.50;74.40;;;;;;5055137;28;1107;-77
2022/07/01 03:18:34;;;;;;;;;;;22.50;74.50;;;;;;5054437;28;1277;-77
2022/07/01 03:20:59;;;;;;;;;;;22.50;74.50;;;;;;5038344;28;1259;-77
2022/07/01 03:23:25;;;;;;;;;;;22.50;74.40;;;;;;5054706;28;1910;-77
2022/07/01 03:25:50;;;;;;;;;;;22.50;74.40;;;;;;5054744;28;1207;-77
2022/07/01 03:28:17;;;;;;;;;;;22.50;75.20;;;;;;5054630;28;1282;-77
2022/07/01 03:30:42;;;;;;;;;;;22.50;74.40;;;;;;5055082;28;1135;-77
2022/07/01 03:33:08;;;;;;;;;;;22.50;74.50;;;;;;5038167;28;1179;-77
2022/07/01 03:35:36;;;;;;;;;;;22.50;74.50;;;;;;5072477;28;1064;-77
2022/07/01 03:38:03;;;;;;;;;;;22.50;74.40;;;;;;5038417;28;1377;-76
2022/07/01 03:40:28;;;;;;;;;;;22.50;74.40;;;;;;5054893;28;1084;-76
2022/07/01 03:42:54;;;;;;;;;;;22.50;74.40;;;;;;5054592;28;1906;-77
2022/07/01 03:45:19;;;;;;;;;;;22.50;74.40;;;;;;5037849;28;1159;-77
2022/07/01 03:47:46;;;;;;;;;;;22.50;74.40;;;;;;5034687;28;1271;-77
2022/07/01 03:50:11;;;;;;;;;;;22.50;74.40;;;;;;5046299;28;1022;-77
2022/07/01 03:52:37;;;;;;;;;;;22.50;74.40;;;;;;5054719;28;1179;-77
2022/07/01 03:55:02;;;;;;;;;;;22.50;74.50;;;;;;5054344;28;1143;-76
2022/07/01 03:57:27;;;;;;;;;;;22.50;75.20;;;;;;5054364;28;1423;-77
2022/07/01 03:59:53;;;;;;;;;;;22.50;74.50;;;;;;5037820;28;1587;-77
2022/07/01 04:02:19;;;;;;;;;;;22.50;74.40;;;;;;5054681;28;1894;-77
2022/07/01 04:04:44;;;;;;;;;;;22.50;74.40;;;;;;5037563;28;1206;-77
2022/07/01 04:07:11;;;;;;;;;;;22.50;74.40;;;;;;5054713;28;1329;-78
2022/07/01 04:09:36;;;;;;;;;;;22.50;74.40;;;;;;5067847;28;1725;-74
2022/07/01 04:12:02;;;;;;;;;;;22.50;74.30;;;;;;5069834;28;2182;-76
2022/07/01 04:14:27;;;;;;;;;;;22.50;74.40;;;;;;5068713;28;1189;-74
2022/07/01 04:16:53;;;;;;;;;;;22.50;74.50;;;;;;5072079;28;1174;-74
2022/07/01 04:19:18;;;;;;;;;;;22.50;75.30;;;;;;5071981;28;1200;-76
2022/07/01 04:24:28;;;;;;;;;;;22.50;74.50;;;;;;5056843;28;1064;-76
2022/07/01 04:26:54;;;;;;;;;;;22.50;74.50;;;;;;5072226;28;1252;-76
2022/07/01 04:29:19;;;;;;;;;;;22.50;74.40;;;;;;5054529;28;1120;-76
2022/07/01 04:31:45;;;;;;;;;;;22.50;74.60;;;;;;5057723;28;1223;-76
2022/07/01 04:34:11;;;;;;;;;;;22.50;74.80;;;;;;5040951;28;1186;-74
2022/07/01 04:36:36;;;;;;;;;;;22.50;74.80;;;;;;5052452;28;1851;-76
2022/07/01 04:39:02;;;;;;;;;;;22.50;74.80;;;;;;5074261;28;1252;-73
2022/07/01 04:44:12;;;;;;;;;;;22.50;75.00;;;;;;5075201;28;1220;-75
2022/07/01 04:46:37;;;;;;;;;;;22.50;75.30;;;;;;5075663;28;1151;-75
2022/07/01 04:49:03;;;;;;;;;;;22.50;75.00;;;;;;5057430;28;1288;-75
2022/07/01 04:51:28;;;;;;;;;;;22.50;75.50;;;;;;5057516;28;1088;-76
2022/07/01 04:53:54;;;;;;;;;;;22.50;75.30;;;;;;5039167;28;1167;-74
2022/07/01 04:56:20;;;;;;;;;;;22.50;75.50;;;;;;5057647;28;1283;-71
2022/07/01 04:58:45;;;;;;;;;;;22.50;76.30;;;;;;5056684;28;1454;-73
2022/07/01 05:01:10;;;;;;;;;;;22.50;75.70;;;;;;5057412;28;1080;-74
2022/07/01 05:03:36;;;;;;;;;;;22.60;76.30;;;;;;5075024;28;1953;-74
2022/07/01 05:06:01;;;;;;;;;;;22.50;76.20;;;;;;5057268;28;1180;-74
2022/07/01 05:08:28;;;;;;;;;;;22.60;76.50;;;;;;5075241;28;1418;-74
2022/07/01 05:10:53;;;;;;;;;;;22.50;76.10;;;;;;5074871;28;1118;-74
2022/07/01 05:13:19;;;;;;;;;;;22.60;76.70;;;;;;5057087;28;1325;-74
2022/07/01 05:15:44;;;;;;;;;;;22.60;77.00;;;;;;5056912;28;1123;-78
2022/07/01 05:23:38;;;;;;;;;;;22.60;75.70;;;;;;5046219;28;1902;-77
2022/07/01 05:26:03;;;;;;;;;;;22.60;75.10;;;;;;5036636;28;1247;-74
2022/07/01 05:28:29;;;;;;;;;;;22.60;75.20;;;;;;5074682;28;1304;-74
2022/07/01 05:30:54;;;;;;;;;;;22.60;75.40;;;;;;5056718;28;1166;-73
2022/07/01 05:33:21;;;;;;;;;;;22.60;75.20;;;;;;5074476;28;1127;-73
2022/07/01 05:35:49;;;;;;;;;;;22.50;75.00;;;;;;5074314;28;1060;-72
2022/07/01 05:38:14;;;;;;;;;;;22.60;75.00;;;;;;5043433;28;1306;-72
2022/07/01 05:40:40;;;;;;;;;;;22.60;74.90;;;;;;5074448;28;1056;-74
2022/07/01 05:43:05;;;;;;;;;;;22.60;74.70;;;;;;5056547;28;1890;-72
2022/07/01 05:45:31;;;;;;;;;;;22.50;74.60;;;;;;5056018;28;864;-73
2022/07/01 05:47:56;;;;;;;;;;;22.50;74.50;;;;;;5071736;28;1791;-72
2022/07/01 05:50:22;;;;;;;;;;;22.50;74.50;;;;;;5060477;28;1334;-75
2022/07/01 05:52:47;;;;;;;;;;;22.50;74.40;;;;;;5074023;28;1071;-74
2022/07/01 05:55:13;;;;;;;;;;;22.50;74.40;;;;;;5073868;28;1145;-73
2022/07/01 05:57:38;;;;;;;;;;;22.50;74.30;;;;;;5074113;28;1262;-73
2022/07/01 06:00:04;;;;;;;;;;;22.50;74.30;;;;;;5074347;28;1713;-71
2022/07/01 06:02:29;;;;;;;;;;;22.50;74.20;;;;;;5056031;28;1965;-71
2022/07/01 06:04:55;;;;;;;;;;;22.50;74.10;;;;;;5074041;28;1251;-71
2022/07/01 06:07:20;;;;;;;;;;;22.50;74.10;;;;;;5073807;28;1319;-71
2022/07/01 06:09:46;;;;;;;;;;;22.50;74.10;;;;;;5073872;28;1358;-71
2022/07/01 06:12:11;;;;;;;;;;;22.50;74.00;;;;;;5073727;28;1252;-71
2022/07/01 06:14:37;;;;;;;;;;;22.50;74.00;;;;;;5073376;28;1343;-72
2022/07/01 06:17:03;;;;;;;;;;;22.50;73.90;;;;;;5073588;28;1354;-70
2022/07/01 06:19:29;;;;;;;;;;;22.50;73.90;;;;;;5052284;28;1311;-70
2022/07/01 06:21:54;;;;;;;;;;;22.50;73.90;;;;;;5072555;28;1914;-70
2022/07/01 06:24:20;;;;;;;;;;;22.50;73.80;;;;;;5055434;28;1268;-70
2022/07/01 06:26:46;;;;;;;;;;;22.50;73.80;;;;;;5073322;28;1179;-72
2022/07/01 06:29:13;;;;;;;;;;;22.50;73.70;;;;;;5073218;28;1323;-72
2022/07/01 06:31:38;;;;;;;;;;;22.50;73.70;;;;;;5055498;28;1315;-72
2022/07/01 06:34:04;;;;;;;;;;;22.50;73.70;;;;;;5072905;28;1260;-72
2022/07/01 06:36:29;;;;;;;;;;;22.50;73.70;;;;;;5055413;28;1339;-72
2022/07/01 06:38:54;;;;;;;;;;;22.50;73.60;;;;;;5073049;28;1215;-71
2022/07/01 06:41:29;;;;;;;;;;;22.50;73.60;;;;;;5073022;28;1343;-71
2022/07/01 06:43:54;;;;;;;;;;;22.50;73.60;;;;;;5072685;28;1906;-69
2022/07/01 06:46:20;;;;;;;;;;;22.50;73.50;;;;;;5073270;28;1250;-71
2022/07/01 06:48:45;;;;;;;;;;;22.50;73.50;;;;;;5073285;28;1301;-70
2022/07/01 06:51:11;;;;;;;;;;;22.50;73.50;;;;;;5073082;28;1450;-70
2022/07/01 06:53:36;;;;;;;;;;;22.50;73.40;;;;;;5072822;28;1167;-71
2022/07/01 06:56:02;;;;;;;;;;;22.50;73.40;;;;;;5072862;28;1549;-72
2022/07/01 06:58:28;;;;;;;;;;;22.50;73.40;;;;;;5072959;28;1396;-72
2022/07/01 07:00:53;;;;;;;;;;;22.50;73.40;;;;;;5072867;28;1428;-72
2022/07/01 07:03:19;;;;;;;;;;;22.50;73.40;;;;;;5072997;28;1953;-72
2022/07/01 07:05:44;;;;;;;;;;;22.40;73.30;;;;;;5072722;28;1248;-72
2022/07/01 07:08:09;;;;;;;;;;;22.50;73.30;;;;;;5072922;28;1198;-72
2022/07/01 07:10:35;;;;;;;;;;;22.50;73.20;;;;;;5072908;28;1339;-73
2022/07/01 07:13:00;;;;;;;;;;;22.50;73.20;;;;;;5072795;28;1068;-72
2022/07/01 07:15:26;;;;;;;;;;;22.50;73.20;;;;;;5072325;28;1310;-72
2022/07/01 07:17:54;;;;;;;;;;;22.50;73.20;;;;;;5094196;22;3501;-64
2022/07/01 07:20:19;;;;;;;;;;;22.50;73.20;;;;;;5049443;28;1309;-68
2022/07/01 07:22:45;;;;;;;;;;;22.50;73.20;;;;;;5035100;28;1985;-66
2022/07/01 07:25:10;;;;;;;;;;;22.50;73.10;;;;;;5052682;28;1320;-67
2022/07/01 07:27:35;;;;;;;;;;;22.50;73.10;;;;;;5052493;28;1628;-68
2022/07/01 07:30:03;;;;;;;;;;;22.50;73.10;;;;;;5052563;28;1111;-67
2022/07/01 07:32:28;;;;;;;;;;;22.50;73.10;;;;;;5052693;28;1341;-67
2022/07/01 07:34:54;;;;;;;;;;;22.50;73.10;;;;;;5034494;28;1483;-66
2022/07/01 07:37:19;;;;;;;;;;;22.50;73.00;;;;;;5052658;28;1264;-66
2022/07/01 07:39:44;;;;;;;;;;;22.50;73.00;;;;;;5034604;28;1376;-67
2022/07/01 07:42:10;;;;;;;;;;;22.50;73.00;;;;;;5052420;28;1913;-68
2022/07/01 07:44:36;;;;;;;;;;;22.50;73.00;;;;;;5052539;28;1362;-67
2022/07/01 07:47:01;;;;;;;;;;;22.50;73.00;;;;;;5052588;28;1666;-67
2022/07/01 07:49:27;;;;;;;;;;;22.50;73.00;;;;;;5052437;28;1354;-67
2022/07/01 07:51:53;;;;;;;;;;;22.40;72.90;;;;;;5034800;28;1327;-67
2022/07/01 07:54:18;;;;;;;;;;;22.50;72.90;;;;;;5052066;28;1302;-67
2022/07/01 07:56:43;;;;;;;;;;;22.50;73.00;;;;;;5052947;28;1386;-67
2022/07/01 07:59:09;;;;;;;;;;;22.50;72.90;;;;;;5039686;28;1381;-67
2022/07/01 08:01:34;;;;;;;;;;;22.40;72.90;;;;;;5051870;28;1316;-67
2022/07/01 08:04:00;;;;;;;;;;;22.50;72.90;;;;;;5052020;28;1961;-67
2022/07/01 08:06:25;;;;;;;;;;;22.50;72.90;;;;;;5055925;28;1266;-68
2022/07/01 08:08:51;;;;;;;;;;;22.50;72.90;;;;;;5056091;28;1262;-66
2022/07/01 08:11:16;;;;;;;;;;;22.50;72.90;;;;;;5049027;28;1329;-67
2022/07/01 08:13:42;;;;;;;;;;;22.50;72.80;;;;;;5018072;28;1355;-67
2022/07/01 08:16:08;;;;;;;;;;;22.50;72.80;;;;;;5046265;28;1139;-67
2022/07/01 08:18:33;;;;;;;;;;;22.50;72.80;;;;;;5052276;28;1390;-67
2022/07/01 08:20:58;;;;;;;;;;;22.50;72.80;;;;;;5035837;28;1267;-67
2022/07/01 08:23:24;;;;;;;;;;;22.40;72.80;;;;;;5035860;28;1964;-67
2022/07/01 08:25:50;;;;;;;;;;;22.40;72.80;;;;;;5035484;28;1175;-67
2022/07/01 08:28:15;;;;;;;;;;;22.50;72.80;;;;;;5017643;28;1374;-67
2022/07/01 08:30:41;;;;;;;;;;;22.40;72.80;;;;;;5035587;28;1280;-67
2022/07/01 08:33:06;;;;;;;;;;;22.40;72.70;;;;;;5035826;28;1368;-67
2022/07/01 08:35:31;;;;;;;;;;;22.50;72.80;;;;;;5017635;28;1354;-67
2022/07/01 08:37:57;;;;;;;;;;;22.40;72.70;;;;;;5022242;28;1265;-67
2022/07/01 08:40:29;;;;;;;;;;;22.40;72.70;;;;;;5037630;28;1415;-67
2022/07/01 08:42:55;;;;;;;;;;;22.40;72.70;;;;;;5055400;28;1898;-66
2022/07/01 08:45:21;;;;;;;;;;;22.40;73.50;;;;;;5054662;28;1272;-68
2022/07/01 08:47:50;;;;;;;;;;;22.50;72.70;;;;;;5024312;28;1342;-67
2022/07/01 08:50:16;;;;;;;;;;;22.40;72.70;;;;;;5055339;28;1065;-67
2022/07/01 08:52:41;;;;;;;;;;;22.40;72.70;;;;;;5055350;28;1515;-66
2022/07/01 08:55:07;;;;;;;;;;;22.50;72.70;;;;;;5036883;28;1355;-68
2022/07/01 08:57:32;;;;;;;;;;;22.50;72.70;;;;;;5055031;28;1307;-66
2022/07/01 09:00:04;;;;;;;;;;;22.40;72.70;;;;;;5018680;28;1703;-67
2022/07/01 09:02:48;;;;;;;;;;;22.40;72.60;;;;;;5023216;28;1894;-67
2022/07/01 09:05:14;;;;;;;;;;;22.50;72.70;;;;;;5036995;28;1114;-67
2022/07/01 09:07:39;;;;;;;;;;;22.40;72.60;;;;;;5037008;28;1377;-67
2022/07/01 09:10:20;;;;;;;;;;;22.40;72.60;;;;;;5055198;28;1338;-67
2022/07/01 09:12:45;;;;;;;;;;;22.40;72.60;;;;;;5055144;28;1268;-66
2022/07/01 09:15:27;;;;;;;;;;;22.40;72.60;;;;;;5021135;28;1108;-67
2022/07/01 09:17:53;;;;;;;;;;;22.50;72.60;;;;;;5017292;28;1271;-68
2022/07/01 09:20:22;;;;;;;;;;;22.40;72.60;;;;;;5009772;28;1367;-68
2022/07/01 09:23:01;;;;;;;;;;;22.40;72.60;;;;;;5000721;28;1965;-67
2022/07/01 09:25:28;;;;;;;;;;;22.40;72.60;;;;;;5034414;28;1128;-68
2022/07/01 09:28:07;;;;;;;;;;;22.50;72.60;;;;;;5033629;28;1388;-67
2022/07/01 09:30:33;;;;;;;;;;;22.40;72.50;;;;;;5034356;28;1120;-67
2022/07/01 09:33:08;;;;;;;;;;;22.40;72.50;;;;;;5034799;28;1348;-67
2022/07/01 09:35:34;;;;;;;;;;;22.40;72.50;;;;;;5016693;28;1166;-66
2022/07/01 09:37:59;;;;;;;;;;;22.50;72.60;;;;;;5034689;28;1329;-67
2022/07/01 09:40:24;;;;;;;;;;;22.50;72.60;;;;;;5034499;28;1292;-68
2022/07/01 09:42:50;;;;;;;;;;;22.40;72.50;;;;;;5012816;28;1957;-66
2022/07/01 09:45:16;;;;;;;;;;;22.50;72.60;;;;;;5030674;28;1276;-69
2022/07/01 09:47:43;;;;;;;;;;;22.40;72.50;;;;;;5033330;28;1447;-69
2022/07/01 09:50:08;;;;;;;;;;;22.50;72.60;;;;;;5033045;28;1072;-68
2022/07/01 09:52:34;;;;;;;;;;;22.40;72.50;;;;;;5033143;28;1387;-67
2022/07/01 09:55:00;;;;;;;;;;;22.40;72.50;;;;;;5033645;28;1335;-67
2022/07/01 09:57:26;;;;;;;;;;;22.40;72.50;;;;;;5015764;28;1937;-67
2022/07/01 09:59:52;;;;;;;;;;;22.40;72.40;;;;;;5033396;28;1500;-70
2022/07/01 10:02:18;;;;;;;;;;;22.40;72.40;;;;;;5020217;28;1943;-68
2022/07/01 10:04:47;;;;;;;;;;;22.50;72.50;;;;;;5019074;28;1322;-69
2022/07/01 10:07:16;;;;;;;;;;;22.50;72.50;;;;;;5035758;28;1320;-69
2022/07/01 10:09:51;;;;;;;;;;;22.40;72.40;;;;;;5054311;28;1287;-69
2022/07/01 10:12:19;;;;;;;;;;;22.40;72.40;;;;;;5035523;28;1297;-69
2022/07/01 10:14:45;;;;;;;;;;;22.40;72.40;;;;;;5052541;28;1282;-68
2022/07/01 10:17:25;;;;;;;;;;;22.40;72.40;;;;;;5033346;28;1272;-68
2022/07/01 10:19:53;;;;;;;;;;;22.40;72.40;;;;;;5015995;28;1355;-67
2022/07/01 10:22:28;;;;;;;;;;;22.40;72.40;;;;;;5035666;28;1898;-68
2022/07/01 10:24:54;;;;;;;;;;;22.40;72.40;;;;;;5031656;28;1071;-68
2022/07/01 10:27:21;;;;;;;;;;;22.40;72.40;;;;;;5031771;28;1264;-67
2022/07/01 10:29:46;;;;;;;;;;;22.40;72.40;;;;;;5032036;28;1371;-67
2022/07/01 10:32:20;;;;;;;;;;;22.40;73.10;;;;;;5032405;28;1092;-67
2022/07/01 10:34:46;;;;;;;;;;;22.40;72.40;;;;;;5038151;28;1291;-67
2022/07/01 10:37:11;;;;;;;;;;;22.40;72.30;;;;;;5053283;28;1079;-68
2022/07/01 10:39:57;;;;;;;;;;;22.40;72.40;;;;;;5035395;28;1492;-67
2022/07/01 10:42:32;;;;;;;;;;;22.40;72.40;;;;;;5053187;28;1901;-68
2022/07/01 10:45:02;;;;;;;;;;;22.40;72.30;;;;;;5035221;28;1323;-68
2022/07/01 10:47:27;;;;;;;;;;;22.40;72.30;;;;;;5053129;28;1292;-67
2022/07/01 10:49:54;;;;;;;;;;;22.40;72.30;;;;;;5035086;28;1426;-67
2022/07/01 10:52:19;;;;;;;;;;;22.40;72.30;;;;;;5053288;28;1267;-67
2022/07/01 10:54:45;;;;;;;;;;;22.40;72.30;;;;;;5052920;28;1238;-68
2022/07/01 10:57:20;;;;;;;;;;;22.40;72.30;;;;;;5029389;28;2012;-67
2022/07/01 10:59:48;;;;;;;;;;;22.40;72.30;;;;;;5028546;28;1607;-67
2022/07/01 11:02:32;;;;;;;;;;;22.40;72.40;;;;;;5028307;28;1951;-67
2022/07/01 11:04:59;;;;;;;;;;;22.40;72.30;;;;;;5026246;28;1222;-68
2022/07/01 11:07:25;;;;;;;;;;;22.40;72.30;;;;;;5031579;28;1127;-68
2022/07/01 11:09:50;;;;;;;;;;;22.40;72.30;;;;;;5033104;28;1358;-68
2022/07/01 11:12:18;;;;;;;;;;;22.40;72.30;;;;;;5032902;28;1403;-67
2022/07/01 11:14:44;;;;;;;;;;;22.40;72.30;;;;;;5031651;28;1280;-67
2022/07/01 11:17:09;;;;;;;;;;;22.40;72.30;;;;;;5034083;28;1341;-67
2022/07/01 11:19:35;;;;;;;;;;;22.40;72.30;;;;;;5041245;28;1369;-67
2022/07/01 11:22:00;;;;;;;;;;;22.40;72.30;;;;;;5015959;28;1898;-67
2022/07/01 11:24:26;;;;;;;;;;;22.40;72.30;;;;;;5032698;28;1323;-67
2022/07/01 11:26:54;;;;;;;;;;;22.40;72.30;;;;;;5032786;28;1254;-67
2022/07/01 11:29:26;;;;;;;;;;;22.40;72.30;;;;;;5012419;28;1308;-65
2022/07/01 11:31:52;;;;;;;;;;;22.40;72.30;;;;;;5021785;28;1398;-67
2022/07/01 11:34:17;;;;;;;;;;;22.40;72.30;;;;;;5052801;28;1127;-66
2022/07/01 11:39:32;;;;;;;;;;;22.40;72.20;;;;;;5040334;28;1407;-67
2022/07/01 11:42:06;;;;;;;;;;;22.40;72.20;;;;;;5056409;28;1961;-67
2022/07/01 11:44:32;;;;;;;;;;;22.40;72.20;;;;;;5056622;28;1296;-67
2022/07/01 11:46:58;;;;;;;;;;;22.40;72.20;;;;;;5039108;28;1342;-66
2022/07/01 11:49:24;;;;;;;;;;;22.40;72.20;;;;;;5056737;28;1366;-67
2022/07/01 11:51:59;;;;;;;;;;;22.40;72.20;;;;;;5056702;28;1307;-67
2022/07/01 11:54:25;;;;;;;;;;;22.40;72.20;;;;;;5038438;28;1319;-67
2022/07/01 11:56:50;;;;;;;;;;;22.40;72.30;;;;;;5056648;28;1322;-66
2022/07/01 11:59:16;;;;;;;;;;;22.40;72.20;;;;;;5022507;28;1505;-69
2022/07/01 12:01:42;;;;;;;;;;;22.40;72.20;;;;;;5033897;28;1240;-65
2022/07/01 12:04:07;;;;;;;;;;;22.40;72.20;;;;;;5035382;28;2008;-67
2022/07/01 12:06:33;;;;;;;;;;;22.40;72.20;;;;;;5035265;28;1327;-67
2022/07/01 12:08:59;;;;;;;;;;;22.40;72.20;;;;;;5035875;28;1364;-67
2022/07/01 12:11:25;;;;;;;;;;;22.40;73.00;;;;;;5055902;22;2228;-68
2022/07/01 12:13:51;;;;;;;;;;;22.40;72.20;;;;;;5045433;28;1681;-69
2022/07/01 12:16:16;;;;;;;;;;;22.40;72.20;;;;;;5070210;28;1241;-67
2022/07/01 12:18:52;;;;;;;;;;;22.40;72.10;;;;;;5069111;28;1358;-67
2022/07/01 12:21:18;;;;;;;;;;;22.40;72.20;;;;;;5050323;28;1116;-66
2022/07/01 12:24:01;;;;;;;;;;;22.40;72.10;;;;;;5046629;28;1918;-66
2022/07/01 12:26:26;;;;;;;;;;;22.40;72.20;;;;;;5032761;28;1321;-66
2022/07/01 12:28:53;;;;;;;;;;;22.40;72.10;;;;;;5063636;28;1362;-66
2022/07/01 12:31:19;;;;;;;;;;;22.40;72.20;;;;;;5055185;28;1330;-66
2022/07/01 12:33:50;;;;;;;;;;;22.40;72.20;;;;;;5074516;28;1233;-65
2022/07/01 12:36:16;;;;;;;;;;;22.40;72.20;;;;;;5074133;28;1298;-66
2022/07/01 12:38:42;;;;;;;;;;;22.40;72.20;;;;;;5056985;28;1272;-67
2022/07/01 12:41:46;;;;;;;;;;;22.40;72.10;;;;;;5056712;28;1301;-66
2022/07/01 12:44:21;;;;;;;;;;;22.40;72.10;;;;;;4972190;28;1887;-66
2022/07/01 12:46:46;;;;;;;;;;;22.40;72.10;;;;;;4956915;28;1309;-66
2022/07/01 12:49:19;;;;;;;;;;;22.40;72.10;;;;;;5026130;28;1284;-66
2022/07/01 12:51:44;;;;;;;;;;;22.40;72.10;;;;;;5061946;23;2073;-74
2022/07/01 12:54:27;;;;;;;;;;;22.40;72.20;;;;;;5077407;28;1280;-75
2022/07/01 12:56:52;;;;;;;;;;;22.40;72.20;;;;;;5090145;28;1036;-72
2022/07/01 12:59:18;;;;;;;;;;;22.40;72.10;;;;;;5075263;28;1385;-71
2022/07/01 13:01:43;;;;;;;;;;;22.40;72.10;;;;;;5086022;28;1367;-72
2022/07/01 13:04:09;;;;;;;;;;;22.40;72.20;;;;;;5088095;28;1993;-71
2022/07/01 13:06:34;;;;;;;;;;;22.40;72.10;;;;;;5088388;28;1125;-71
2022/07/01 13:09:00;;;;;;;;;;;22.40;72.20;;;;;;5084782;28;1363;-70
2022/07/01 13:11:25;;;;;;;;;;;22.40;72.10;;;;;;5078299;28;1667;-71
2022/07/01 13:13:51;;;;;;;;;;;22.40;72.20;;;;;;5064918;28;1178;-72
2022/07/01 13:16:16;;;;;;;;;;;22.40;72.20;;;;;;5073487;28;1724;-72
2022/07/01 13:18:41;;;;;;;;;;;22.40;72.10;;;;;;5075503;28;1489;-71
2022/07/01 13:21:07;;;;;;;;;;;22.40;72.10;;;;;;5065278;28;1359;-71
2022/07/01 13:23:32;;;;;;;;;;;22.40;72.90;;;;;;5064238;28;1925;-72
2022/07/01 13:25:58;;;;;;;;;;;22.40;72.10;;;;;;5072539;28;1134;-72
2022/07/01 13:28:23;;;;;;;;;;;22.40;72.10;;;;;;5074625;28;1153;-71
2022/07/01 13:30:49;;;;;;;;;;;22.40;72.10;;;;;;5056071;28;1730;-71
2022/07/01 13:33:14;;;;;;;;;;;22.40;72.20;;;;;;5072558;28;1400;-72
2022/07/01 13:35:40;;;;;;;;;;;22.40;72.20;;;;;;5072660;28;1059;-72
2022/07/01 13:38:05;;;;;;;;;;;22.40;72.20;;;;;;5077008;28;1228;-72
2022/07/01 13:40:30;;;;;;;;;;;22.40;72.10;;;;;;5094418;28;1266;-71
2022/07/01 13:42:56;;;;;;;;;;;22.40;72.10;;;;;;5094237;28;1973;-70
2022/07/01 13:45:21;;;;;;;;;;;22.40;72.10;;;;;;5083938;28;1674;-72
2022/07/01 13:47:47;;;;;;;;;;;22.40;72.90;;;;;;5074230;28;1277;-73
2022/07/01 13:50:12;;;;;;;;;;;22.40;72.20;;;;;;5071447;28;1306;-71
2022/07/01 13:52:38;;;;;;;;;;;22.40;72.10;;;;;;5077007;28;1317;-73
2022/07/01 13:55:03;;;;;;;;;;;22.40;72.10;;;;;;5092533;28;1252;-73
2022/07/01 13:57:29;;;;;;;;;;;22.40;72.10;;;;;;5090445;28;1545;-70
2022/07/01 13:59:56;;;;;;;;;;;22.40;72.10;;;;;;5062922;28;1788;-72
2022/07/01 14:02:22;;;;;;;;;;;22.40;72.10;;;;;;5074097;28;1918;-71
2022/07/01 14:04:47;;;;;;;;;;;22.40;72.10;;;;;;5081520;28;1137;-71
2022/07/01 14:07:13;;;;;;;;;;;22.40;72.10;;;;;;5066141;28;1133;-73
2022/07/01 14:09:40;;;;;;;;;;;22.40;72.10;;;;;;5063560;28;1115;-74
2022/07/01 14:12:05;;;;;;;;;;;22.40;72.10;;;;;;5077971;28;1510;-69
2022/07/01 14:14:31;;;;;;;;;;;22.30;72.00;;;;;;5081620;28;1071;-72
2022/07/01 14:16:56;;;;;;;;;;;22.40;72.10;;;;;;5089913;28;1176;-72
2022/07/01 14:19:22;;;;;;;;;;;22.40;72.10;;;;;;5076526;28;1747;-72
2022/07/01 14:21:47;;;;;;;;;;;22.40;72.10;;;;;;5072178;28;1340;-72
2022/07/01 14:24:12;;;;;;;;;;;22.40;72.10;;;;;;5072150;28;1894;-71
2022/07/01 14:26:38;;;;;;;;;;;22.40;72.10;;;;;;5073448;28;1157;-70
2022/07/01 14:29:03;;;;;;;;;;;22.40;72.10;;;;;;5071759;28;1047;-71
2022/07/01 14:31:29;;;;;;;;;;;22.40;72.10;;;;;;5071175;28;1571;-71
2022/07/01 14:33:54;;;;;;;;;;;22.40;72.10;;;;;;5073405;28;1243;-71
2022/07/01 14:36:20;;;;;;;;;;;22.40;72.10;;;;;;5073413;28;1250;-70
2022/07/01 14:38:45;;;;;;;;;;;22.40;72.10;;;;;;5073415;28;1274;-71
2022/07/01 14:41:11;;;;;;;;;;;22.40;72.10;;;;;;5088923;28;1368;-71
2022/07/01 14:43:37;;;;;;;;;;;22.40;72.10;;;;;;5073271;28;1906;-71